sensor_id;sensor_type;location;lat;lon;timestamp;temperature;humidity
6429;DHT22;3247;48.946;10.220;2023-03-04T00:01:33;-3.30;99.90
6429;DHT22;3247;48.946;10.220;2023-03-04T00:03:58;-2.90;99.90
6429;DHT22;3247;48.946;10.220;2023-03-04T00:06:24;-3.40;99.90
6429;DHT22;3247;48.946;10.220;2023-03-04T00:08:49;-3.40;99.90
6429;DHT22;3247;48.946;10.220;2023-03-04T00:11:15;-3.50;99.90
6429;DHT22;3247;48.946;10.220;2023-03-04T00:13:40;-2.60;99.90
6429;DHT22;3247;48.946;10.220;2023-03-04T00:16:06;-2.90;99.90
6429;DHT22;3247;48.946;10.220;2023-03-04T00:18:31;-3.50;99.90
6429;DHT22;3247;48.946;10.220;2023-03-04T00:24:00;-3.60;99.90
6429;DHT22;3247;48.946;10.220;2023-03-04T00:26:25;-3.70;99.90
6429;DHT22;3247;48.946;10.220;2023-03-04T00:28:51;-2.90;99.90
6429;DHT22;3247;48.946;10.220;2023-03-04T00:31:16;-3.10;99.90
6429;DHT22;3247;48.946;10.220;2023-03-04T00:33:41;-3.70;99.90
6429;DHT22;3247;48.946;10.220;2023-03-04T00:36:08;-2.80;99.90
6429;DHT22;3247;48.946;10.220;2023-03-04T00:38:34;-3.70;99.90
6429;DHT22;3247;48.946;10.220;2023-03-04T00:40:59;-3.70;99.90
6429;DHT22;3247;48.946;10.220;2023-03-04T00:43:25;-3.70;99.90
6429;DHT22;3247;48.946;10.220;2023-03-04T00:45:50;-3.70;99.90
6429;DHT22;3247;48.946;10.220;2023-03-04T00:48:16;-3.50;99.90
6429;DHT22;3247;48.946;10.220;2023-03-04T00:53:45;-3.80;99.90
6429;DHT22;3247;48.946;10.220;2023-03-04T00:56:11;-3.80;99.90
6429;DHT22;3247;48.946;10.220;2023-03-04T00:58:37;-3.90;99.90
6429;DHT22;3247;48.946;10.220;2023-03-04T01:01:05;-3.60;99.90
6429;DHT22;3247;48.946;10.220;2023-03-04T01:03:30;-3.50;99.90
6429;DHT22;3247;48.946;10.220;2023-03-04T01:05:57;-3.90;99.90
6429;DHT22;3247;48.946;10.220;2023-03-04T01:08:22;-3.60;99.90
6429;DHT22;3247;48.946;10.220;2023-03-04T01:10:47;-3.20;99.90
6429;DHT22;3247;48.946;10.220;2023-03-04T01:13:13;-3.90;99.90
6429;DHT22;3247;48.946;10.220;2023-03-04T01:15:38;-3.90;99.90
6429;DHT22;3247;48.946;10.220;2023-03-04T01:18:10;-3.90;99.90
6429;DHT22;3247;48.946;10.220;2023-03-04T01:23:39;-4.00;99.90
6429;DHT22;3247;48.946;10.220;2023-03-04T01:26:04;-3.80;99.90
6429;DHT22;3247;48.946;10.220;2023-03-04T01:28:30;-3.90;99.90
6429;DHT22;3247;48.946;10.220;2023-03-04T01:31:00;-3.20;99.90
6429;DHT22;3247;48.946;10.220;2023-03-04T01:33:26;-4.00;99.90
6429;DHT22;3247;48.946;10.220;2023-03-04T01:35:51;-3.00;99.90
6429;DHT22;3247;48.946;10.220;2023-03-04T01:38:17;-3.00;99.90
6429;DHT22;3247;48.946;10.220;2023-03-04T01:40:45;-3.50;99.90
6429;DHT22;3247;48.946;10.220;2023-03-04T01:43:30;-4.10;99.90
6429;DHT22;3247;48.946;10.220;2023-03-04T01:45:56;-4.10;99.90
6429;DHT22;3247;48.946;10.220;2023-03-04T01:48:29;-4.10;99.90
6429;DHT22;3247;48.946;10.220;2023-03-04T01:53:58;-4.10;99.90
6429;DHT22;3247;48.946;10.220;2023-03-04T01:56:25;-4.20;99.90
6429;DHT22;3247;48.946;10.220;2023-03-04T01:59:15;-3.80;99.90
6429;DHT22;3247;48.946;10.220;2023-03-04T02:01:42;-4.20;99.90
6429;DHT22;3247;48.946;10.220;2023-03-04T02:04:09;-3.30;99.90
6429;DHT22;3247;48.946;10.220;2023-03-04T02:06:36;-4.30;99.90
6429;DHT22;3247;48.946;10.220;2023-03-04T02:09:02;-4.30;99.90
6429;DHT22;3247;48.946;10.220;2023-03-04T02:11:28;-4.30;99.90
6429;DHT22;3247;48.946;10.220;2023-03-04T02:13:54;-4.30;99.90
6429;DHT22;3247;48.946;10.220;2023-03-04T02:16:20;-4.30;99.90
6429;DHT22;3247;48.946;10.220;2023-03-04T02:18:45;-4.40;99.90
6429;DHT22;3247;48.946;10.220;2023-03-04T02:24:32;-4.40;99.90
6429;DHT22;3247;48.946;10.220;2023-03-04T02:26:59;-4.50;99.90
6429;DHT22;3247;48.946;10.220;2023-03-04T02:29:25;-4.50;99.90
6429;DHT22;3247;48.946;10.220;2023-03-04T02:31:51;-4.50;99.90
6429;DHT22;3247;48.946;10.220;2023-03-04T02:34:18;-4.50;99.90
6429;DHT22;3247;48.946;10.220;2023-03-04T02:36:44;-4.50;99.90
6429;DHT22;3247;48.946;10.220;2023-03-04T02:39:11;-4.50;99.90
6429;DHT22;3247;48.946;10.220;2023-03-04T02:41:37;-4.60;99.90
6429;DHT22;3247;48.946;10.220;2023-03-04T02:44:08;-4.50;99.90
6429;DHT22;3247;48.946;10.220;2023-03-04T02:46:33;-4.60;99.90
6429;DHT22;3247;48.946;10.220;2023-03-04T02:48:59;-3.70;99.90
6429;DHT22;3247;48.946;10.220;2023-03-04T02:54:28;-4.90;99.90
6429;DHT22;3247;48.946;10.220;2023-03-04T02:56:55;-5.10;99.90
6429;DHT22;3247;48.946;10.220;2023-03-04T02:59:21;-5.10;99.90
6429;DHT22;3247;48.946;10.220;2023-03-04T03:01:47;-4.20;99.90
6429;DHT22;3247;48.946;10.220;2023-03-04T03:04:13;-4.30;99.90
6429;DHT22;3247;48.946;10.220;2023-03-04T03:06:39;-5.10;99.90
6429;DHT22;3247;48.946;10.220;2023-03-04T03:09:05;-5.10;99.90
6429;DHT22;3247;48.946;10.220;2023-03-04T03:11:31;-4.00;99.90
6429;DHT22;3247;48.946;10.220;2023-03-04T03:13:56;-5.00;99.90
6429;DHT22;3247;48.946;10.220;2023-03-04T03:16:23;-5.00;99.90
6429;DHT22;3247;48.946;10.220;2023-03-04T03:18:49;-5.00;99.90
6429;DHT22;3247;48.946;10.220;2023-03-04T03:24:18;-5.10;99.90
6429;DHT22;3247;48.946;10.220;2023-03-04T03:26:44;-5.10;99.90
6429;DHT22;3247;48.946;10.220;2023-03-04T03:29:10;-4.50;99.90
6429;DHT22;3247;48.946;10.220;2023-03-04T03:31:35;-5.10;99.90
6429;DHT22;3247;48.946;10.220;2023-03-04T03:34:00;-5.00;99.90
6429;DHT22;3247;48.946;10.220;2023-03-04T03:36:26;-5.20;99.90
6429;DHT22;3247;48.946;10.220;2023-03-04T03:38:53;-5.20;99.90
6429;DHT22;3247;48.946;10.220;2023-03-04T03:41:18;-4.40;99.90
6429;DHT22;3247;48.946;10.220;2023-03-04T03:43:44;-5.30;99.90
6429;DHT22;3247;48.946;10.220;2023-03-04T03:46:09;-6.20;99.90
6429;DHT22;3247;48.946;10.220;2023-03-04T03:48:37;-5.30;99.90
6429;DHT22;3247;48.946;10.220;2023-03-04T03:54:06;-5.40;99.90
6429;DHT22;3247;48.946;10.220;2023-03-04T03:56:31;-5.40;99.90
6429;DHT22;3247;48.946;10.220;2023-03-04T03:58:57;-4.30;99.90
6429;DHT22;3247;48.946;10.220;2023-03-04T04:01:24;-5.60;99.90
6429;DHT22;3247;48.946;10.220;2023-03-04T04:03:49;-5.60;99.90
6429;DHT22;3247;48.946;10.220;2023-03-04T04:06:16;-4.70;99.90
6429;DHT22;3247;48.946;10.220;2023-03-04T04:08:42;-5.60;99.90
6429;DHT22;3247;48.946;10.220;2023-03-04T04:11:08;-4.60;99.90
6429;DHT22;3247;48.946;10.220;2023-03-04T04:13:35;-5.60;99.90
6429;DHT22;3247;48.946;10.220;2023-03-04T04:16:00;-6.30;99.90
6429;DHT22;3247;48.946;10.220;2023-03-04T04:18:27;-4.50;99.90
6429;DHT22;3247;48.946;10.220;2023-03-04T04:23:58;-5.70;99.90
6429;DHT22;3247;48.946;10.220;2023-03-04T04:26:25;-5.70;99.90
6429;DHT22;3247;48.946;10.220;2023-03-04T04:28:51;-5.70;99.90
6429;DHT22;3247;48.946;10.220;2023-03-04T04:31:16;-5.70;99.90
6429;DHT22;3247;48.946;10.220;2023-03-04T04:33:43;-5.80;99.90
6429;DHT22;3247;48.946;10.220;2023-03-04T04:36:11;-4.80;99.90
6429;DHT22;3247;48.946;10.220;2023-03-04T04:38:37;-5.80;99.90
6429;DHT22;3247;48.946;10.220;2023-03-04T04:41:02;-5.70;99.90
6429;DHT22;3247;48.946;10.220;2023-03-04T04:43:30;-5.80;99.90
6429;DHT22;3247;48.946;10.220;2023-03-04T04:45:58;-5.80;99.90
6429;DHT22;3247;48.946;10.220;2023-03-04T04:48:23;-5.20;99.90
6429;DHT22;3247;48.946;10.220;2023-03-04T04:53:52;-5.90;99.90
6429;DHT22;3247;48.946;10.220;2023-03-04T04:56:19;-5.90;99.90
6429;DHT22;3247;48.946;10.220;2023-03-04T04:58:45;-5.90;99.90
6429;DHT22;3247;48.946;10.220;2023-03-04T05:01:11;-6.00;99.90
6429;DHT22;3247;48.946;10.220;2023-03-04T05:03:37;-6.00;99.90
6429;DHT22;3247;48.946;10.220;2023-03-04T05:06:03;-5.10;99.90
6429;DHT22;3247;48.946;10.220;2023-03-04T05:08:29;-6.00;99.90
6429;DHT22;3247;48.946;10.220;2023-03-04T05:10:54;-5.90;99.90
6429;DHT22;3247;48.946;10.220;2023-03-04T05:13:21;-5.90;99.90
6429;DHT22;3247;48.946;10.220;2023-03-04T05:15:49;-6.00;99.90
6429;DHT22;3247;48.946;10.220;2023-03-04T05:18:17;-5.10;99.90
6429;DHT22;3247;48.946;10.220;2023-03-04T05:23:47;-6.10;99.90
6429;DHT22;3247;48.946;10.220;2023-03-04T05:26:15;-6.10;99.90
6429;DHT22;3247;48.946;10.220;2023-03-04T05:28:41;-6.10;99.90
6429;DHT22;3247;48.946;10.220;2023-03-04T05:31:08;-6.10;99.90
6429;DHT22;3247;48.946;10.220;2023-03-04T05:33:36;-6.10;99.90
6429;DHT22;3247;48.946;10.220;2023-03-04T05:36:02;-6.20;99.90
6429;DHT22;3247;48.946;10.220;2023-03-04T05:38:28;-6.20;99.90
6429;DHT22;3247;48.946;10.220;2023-03-04T05:40:59;-6.30;99.90
6429;DHT22;3247;48.946;10.220;2023-03-04T05:43:25;-6.30;99.90
6429;DHT22;3247;48.946;10.220;2023-03-04T05:45:54;-6.30;99.90
6429;DHT22;3247;48.946;10.220;2023-03-04T05:48:19;-6.30;99.90
6429;DHT22;3247;48.946;10.220;2023-03-04T05:53:48;-6.30;99.90
6429;DHT22;3247;48.946;10.220;2023-03-04T05:56:15;-6.40;99.90
6429;DHT22;3247;48.946;10.220;2023-03-04T05:58:41;-5.40;99.90
6429;DHT22;3247;48.946;10.220;2023-03-04T06:01:06;-5.30;99.90
6429;DHT22;3247;48.946;10.220;2023-03-04T06:03:32;-5.90;99.90
6429;DHT22;3247;48.946;10.220;2023-03-04T06:05:57;-6.30;99.90
6429;DHT22;3247;48.946;10.220;2023-03-04T06:08:23;-6.20;99.90
6429;DHT22;3247;48.946;10.220;2023-03-04T06:10:50;-6.20;99.90
6429;DHT22;3247;48.946;10.220;2023-03-04T06:13:16;-6.10;99.90
6429;DHT22;3247;48.946;10.220;2023-03-04T06:15:41;-6.10;99.90
6429;DHT22;3247;48.946;10.220;2023-03-04T06:18:07;-5.20;99.90
6429;DHT22;3247;48.946;10.220;2023-03-04T06:23:36;-5.90;99.90
6429;DHT22;3247;48.946;10.220;2023-03-04T06:26:01;-4.90;99.90
6429;DHT22;3247;48.946;10.220;2023-03-04T06:28:28;-4.80;99.90
6429;DHT22;3247;48.946;10.220;2023-03-04T06:30:54;-5.70;99.90
6429;DHT22;3247;48.946;10.220;2023-03-04T06:33:20;-4.60;99.90
6429;DHT22;3247;48.946;10.220;2023-03-04T06:35:46;-4.60;99.90
6429;DHT22;3247;48.946;10.220;2023-03-04T06:38:13;-5.20;99.90
6429;DHT22;3247;48.946;10.220;2023-03-04T06:40:39;-5.00;99.90
6429;DHT22;3247;48.946;10.220;2023-03-04T06:43:04;-4.90;99.90
6429;DHT22;3247;48.946;10.220;2023-03-04T06:45:30;-4.80;99.90
6429;DHT22;3247;48.946;10.220;2023-03-04T06:47:55;-4.70;99.90
6429;DHT22;3247;48.946;10.220;2023-03-04T06:53:26;-4.10;99.90
6429;DHT22;3247;48.946;10.220;2023-03-04T06:55:51;-3.80;99.90
6429;DHT22;3247;48.946;10.220;2023-03-04T06:58:16;-3.30;99.90
6429;DHT22;3247;48.946;10.220;2023-03-04T07:00:43;-2.40;99.90
6429;DHT22;3247;48.946;10.220;2023-03-04T07:03:10;-2.10;99.90
6429;DHT22;3247;48.946;10.220;2023-03-04T07:05:35;-3.00;99.90
6429;DHT22;3247;48.946;10.220;2023-03-04T07:08:01;-2.30;99.90
6429;DHT22;3247;48.946;10.220;2023-03-04T07:10:27;-2.90;99.90
6429;DHT22;3247;48.946;10.220;2023-03-04T07:12:54;-2.70;99.90
6429;DHT22;3247;48.946;10.220;2023-03-04T07:15:19;-2.70;99.90
6429;DHT22;3247;48.946;10.220;2023-03-04T07:17:44;-2.70;99.90
6429;DHT22;3247;48.946;10.220;2023-03-04T07:20:10;-2.60;99.90
6429;DHT22;3247;48.946;10.220;2023-03-04T09:55:51;0.40;99.90
6429;DHT22;3247;48.946;10.220;2023-03-04T10:06:03;0.80;99.90
6429;DHT22;3247;48.946;10.220;2023-03-04T10:08:32;0.60;99.90
6429;DHT22;3247;48.946;10.220;2023-03-04T10:10:59;0.60;99.90
6429;DHT22;3247;48.946;10.220;2023-03-04T10:13:28;0.70;99.90
6429;DHT22;3247;48.946;10.220;2023-03-04T10:15:56;0.70;99.90
6429;DHT22;3247;48.946;10.220;2023-03-04T10:18:27;0.80;99.90
6429;DHT22;3247;48.946;10.220;2023-03-04T10:21:00;0.80;99.90
6429;DHT22;3247;48.946;10.220;2023-03-04T10:23:28;0.80;99.90
6429;DHT22;3247;48.946;10.220;2023-03-04T10:25:54;0.90;99.90
6429;DHT22;3247;48.946;10.220;2023-03-04T10:28:24;0.90;99.90
6429;DHT22;3247;48.946;10.220;2023-03-04T10:33:16;1.00;99.90
6429;DHT22;3247;48.946;10.220;2023-03-04T10:35:43;1.00;99.90
6429;DHT22;3247;48.946;10.220;2023-03-04T10:38:09;1.00;99.90
6429;DHT22;3247;48.946;10.220;2023-03-04T10:40:37;1.10;99.90
6429;DHT22;3247;48.946;10.220;2023-03-04T10:43:03;1.10;99.90
6429;DHT22;3247;48.946;10.220;2023-03-04T10:45:36;1.10;99.90
6429;DHT22;3247;48.946;10.220;2023-03-04T10:48:02;1.20;99.90
6429;DHT22;3247;48.946;10.220;2023-03-04T10:56:37;0.90;99.90
6429;DHT22;3247;48.946;10.220;2023-03-04T11:01:48;0.90;99.90
6429;DHT22;3247;48.946;10.220;2023-03-04T11:04:17;1.10;99.90
6429;DHT22;3247;48.946;10.220;2023-03-04T11:06:43;1.00;99.90
6429;DHT22;3247;48.946;10.220;2023-03-04T11:09:19;1.10;99.90
6429;DHT22;3247;48.946;10.220;2023-03-04T11:11:45;1.00;99.90
6429;DHT22;3247;48.946;10.220;2023-03-04T11:16:58;0.90;99.90
6429;DHT22;3247;48.946;10.220;2023-03-04T11:19:27;0.90;99.90
6429;DHT22;3247;48.946;10.220;2023-03-04T11:21:56;0.80;99.90
6429;DHT22;3247;48.946;10.220;2023-03-04T11:24:27;0.80;99.90
6429;DHT22;3247;48.946;10.220;2023-03-04T11:27:02;0.90;99.90
6429;DHT22;3247;48.946;10.220;2023-03-04T11:29:30;0.90;99.90
6429;DHT22;3247;48.946;10.220;2023-03-04T11:31:59;1.00;99.90
6429;DHT22;3247;48.946;10.220;2023-03-04T11:34:41;1.00;99.90
6429;DHT22;3247;48.946;10.220;2023-03-04T11:37:20;0.90;99.90
6429;DHT22;3247;48.946;10.220;2023-03-04T11:40:03;1.10;99.90
6429;DHT22;3247;48.946;10.220;2023-03-04T11:42:44;1.10;99.90
6429;DHT22;3247;48.946;10.220;2023-03-04T11:45:13;1.10;99.90
6429;DHT22;3247;48.946;10.220;2023-03-04T11:47:50;1.20;99.90
6429;DHT22;3247;48.946;10.220;2023-03-04T11:56:12;1.40;99.90
6429;DHT22;3247;48.946;10.220;2023-03-04T12:01:25;1.50;99.90
6429;DHT22;3247;48.946;10.220;2023-03-04T12:03:59;1.50;99.90
6429;DHT22;3247;48.946;10.220;2023-03-04T12:11:43;1.50;99.90
6429;DHT22;3247;48.946;10.220;2023-03-04T12:14:20;1.50;99.90
6429;DHT22;3247;48.946;10.220;2023-03-04T12:24:53;1.10;99.90
6429;DHT22;3247;48.946;10.220;2023-03-04T12:27:25;1.10;99.90
6429;DHT22;3247;48.946;10.220;2023-03-04T12:34:53;1.50;99.90
6429;DHT22;3247;48.946;10.220;2023-03-04T12:37:31;1.60;99.90
6429;DHT22;3247;48.946;10.220;2023-03-04T12:42:40;1.70;99.90
6429;DHT22;3247;48.946;10.220;2023-03-04T12:45:27;1.60;99.90
6429;DHT22;3247;48.946;10.220;2023-03-04T12:48:03;1.70;99.90
6429;DHT22;3247;48.946;10.220;2023-03-04T12:56:24;1.80;99.90
6429;DHT22;3247;48.946;10.220;2023-03-04T12:58:50;1.50;99.90
6429;DHT22;3247;48.946;10.220;2023-03-04T13:01:30;1.40;99.90
6429;DHT22;3247;48.946;10.220;2023-03-04T13:11:51;1.10;99.90
6429;DHT22;3247;48.946;10.220;2023-03-04T13:25:26;1.00;99.90
6429;DHT22;3247;48.946;10.220;2023-03-04T13:27:48;1.00;99.90
6429;DHT22;3247;48.946;10.220;2023-03-04T13:43:41;1.00;99.90
6429;DHT22;3247;48.946;10.220;2023-03-04T13:48:43;1.30;99.90
6429;DHT22;3247;48.946;10.220;2023-03-04T13:54:28;1.30;99.90
6429;DHT22;3247;48.946;10.220;2023-03-04T13:59:27;1.10;99.90
6429;DHT22;3247;48.946;10.220;2023-03-04T14:04:30;1.00;99.90
6429;DHT22;3247;48.946;10.220;2023-03-04T14:06:56;1.00;99.90
6429;DHT22;3247;48.946;10.220;2023-03-04T14:09:23;1.00;99.90
6429;DHT22;3247;48.946;10.220;2023-03-04T14:11:49;0.90;99.90
6429;DHT22;3247;48.946;10.220;2023-03-04T14:14:18;0.90;99.90
6429;DHT22;3247;48.946;10.220;2023-03-04T14:16:51;0.90;99.90
6429;DHT22;3247;48.946;10.220;2023-03-04T14:19:22;0.90;99.90
6429;DHT22;3247;48.946;10.220;2023-03-04T14:21:51;0.90;99.90
6429;DHT22;3247;48.946;10.220;2023-03-04T14:24:17;0.90;99.90
6429;DHT22;3247;48.946;10.220;2023-03-04T14:26:43;1.00;99.90
6429;DHT22;3247;48.946;10.220;2023-03-04T14:29:23;1.00;99.90
6429;DHT22;3247;48.946;10.220;2023-03-04T14:31:49;1.10;99.90
6429;DHT22;3247;48.946;10.220;2023-03-04T14:34:17;1.10;99.90
6429;DHT22;3247;48.946;10.220;2023-03-04T14:36:47;1.10;99.90
6429;DHT22;3247;48.946;10.220;2023-03-04T14:39:14;1.10;99.90
6429;DHT22;3247;48.946;10.220;2023-03-04T14:41:40;1.10;99.90
6429;DHT22;3247;48.946;10.220;2023-03-04T14:44:22;1.10;99.90
6429;DHT22;3247;48.946;10.220;2023-03-04T14:46:50;1.10;99.90
6429;DHT22;3247;48.946;10.220;2023-03-04T14:49:17;1.10;99.90
6429;DHT22;3247;48.946;10.220;2023-03-04T14:51:45;1.10;99.90
6429;DHT22;3247;48.946;10.220;2023-03-04T14:56:49;1.10;99.90
6429;DHT22;3247;48.946;10.220;2023-03-04T14:59:14;1.00;99.90
6429;DHT22;3247;48.946;10.220;2023-03-04T15:01:40;1.00;99.90
6429;DHT22;3247;48.946;10.220;2023-03-04T15:04:08;1.00;99.90
6429;DHT22;3247;48.946;10.220;2023-03-04T15:06:53;1.00;99.90
6429;DHT22;3247;48.946;10.220;2023-03-04T15:09:23;0.80;99.90
6429;DHT22;3247;48.946;10.220;2023-03-04T15:11:50;0.80;99.90
6429;DHT22;3247;48.946;10.220;2023-03-04T15:17:00;0.80;99.90
6429;DHT22;3247;48.946;10.220;2023-03-04T15:19:26;0.80;99.90
6429;DHT22;3247;48.946;10.220;2023-03-04T15:22:10;0.90;99.90
6429;DHT22;3247;48.946;10.220;2023-03-04T15:24:35;1.00;99.90
6429;DHT22;3247;48.946;10.220;2023-03-04T15:27:01;1.10;99.90
6429;DHT22;3247;48.946;10.220;2023-03-04T15:29:31;1.10;99.90
6429;DHT22;3247;48.946;10.220;2023-03-04T15:31:57;1.10;99.90
6429;DHT22;3247;48.946;10.220;2023-03-04T15:34:22;1.10;99.90
6429;DHT22;3247;48.946;10.220;2023-03-04T15:36:48;1.10;99.90
6429;DHT22;3247;48.946;10.220;2023-03-04T15:39:14;1.10;99.90
6429;DHT22;3247;48.946;10.220;2023-03-04T15:41:40;1.10;99.90
6429;DHT22;3247;48.946;10.220;2023-03-04T15:44:06;1.20;99.90
6429;DHT22;3247;48.946;10.220;2023-03-04T15:46:31;1.10;99.90
6429;DHT22;3247;48.946;10.220;2023-03-04T15:48:57;1.20;99.90
6429;DHT22;3247;48.946;10.220;2023-03-04T15:51:23;1.20;99.90
6429;DHT22;3247;48.946;10.220;2023-03-04T15:53:52;1.20;99.90
6429;DHT22;3247;48.946;10.220;2023-03-04T15:56:19;1.20;99.90
6429;DHT22;3247;48.946;10.220;2023-03-04T15:58:56;1.20;99.90
6429;DHT22;3247;48.946;10.220;2023-03-04T16:01:22;1.10;99.90
6429;DHT22;3247;48.946;10.220;2023-03-04T16:03:48;1.10;99.90
6429;DHT22;3247;48.946;10.220;2023-03-04T16:06:14;1.10;99.90
6429;DHT22;3247;48.946;10.220;2023-03-04T16:08:41;1.10;99.90
6429;DHT22;3247;48.946;10.220;2023-03-04T16:11:09;1.10;99.90
6429;DHT22;3247;48.946;10.220;2023-03-04T16:13:38;1.10;99.90
6429;DHT22;3247;48.946;10.220;2023-03-04T16:16:03;1.10;99.90
6429;DHT22;3247;48.946;10.220;2023-03-04T16:18:29;1.10;99.90
6429;DHT22;3247;48.946;10.220;2023-03-04T16:21:00;1.10;99.90
6429;DHT22;3247;48.946;10.220;2023-03-04T16:23:26;1.00;99.90
6429;DHT22;3247;48.946;10.220;2023-03-04T16:25:53;0.90;99.90
6429;DHT22;3247;48.946;10.220;2023-03-04T16:28:19;0.90;99.90
6429;DHT22;3247;48.946;10.220;2023-03-04T16:30:45;1.00;99.90
6429;DHT22;3247;48.946;10.220;2023-03-04T16:33:10;0.90;99.90
6429;DHT22;3247;48.946;10.220;2023-03-04T16:35:36;0.90;99.90
6429;DHT22;3247;48.946;10.220;2023-03-04T16:38:03;0.90;99.90
6429;DHT22;3247;48.946;10.220;2023-03-04T16:40:29;0.40;99.90
6429;DHT22;3247;48.946;10.220;2023-03-04T16:42:55;0.90;99.90
6429;DHT22;3247;48.946;10.220;2023-03-04T16:45:22;0.90;99.90
6429;DHT22;3247;48.946;10.220;2023-03-04T16:47:48;0.10;99.90
6429;DHT22;3247;48.946;10.220;2023-03-04T16:50:21;0.80;99.90
6429;DHT22;3247;48.946;10.220;2023-03-04T16:52:51;0.80;99.90
6429;DHT22;3247;48.946;10.220;2023-03-04T16:55:26;0.80;99.90
6429;DHT22;3247;48.946;10.220;2023-03-04T16:57:53;0.80;99.90
6429;DHT22;3247;48.946;10.220;2023-03-04T17:00:19;0.80;99.90
6429;DHT22;3247;48.946;10.220;2023-03-04T17:02:45;0.80;99.90
6429;DHT22;3247;48.946;10.220;2023-03-04T17:05:17;0.80;99.90
6429;DHT22;3247;48.946;10.220;2023-03-04T17:07:42;0.80;99.90
6429;DHT22;3247;48.946;10.220;2023-03-04T17:10:08;0.80;99.90
6429;DHT22;3247;48.946;10.220;2023-03-04T17:12:34;0.70;99.90
6429;DHT22;3247;48.946;10.220;2023-03-04T17:14:59;0.70;99.90
6429;DHT22;3247;48.946;10.220;2023-03-04T17:17:31;0.70;99.90
6429;DHT22;3247;48.946;10.220;2023-03-04T17:19:57;0.70;99.90
6429;DHT22;3247;48.946;10.220;2023-03-04T17:22:23;0.70;99.90
6429;DHT22;3247;48.946;10.220;2023-03-04T17:24:48;0.70;99.90
6429;DHT22;3247;48.946;10.220;2023-03-04T17:27:14;0.70;99.90
6429;DHT22;3247;48.946;10.220;2023-03-04T17:29:39;0.70;99.90
6429;DHT22;3247;48.946;10.220;2023-03-04T17:32:05;0.70;99.90
6429;DHT22;3247;48.946;10.220;2023-03-04T17:34:30;0.70;99.90
6429;DHT22;3247;48.946;10.220;2023-03-04T17:36:56;0.70;99.90
6429;DHT22;3247;48.946;10.220;2023-03-04T17:39:22;0.70;99.90
6429;DHT22;3247;48.946;10.220;2023-03-04T17:41:48;0.70;99.90
6429;DHT22;3247;48.946;10.220;2023-03-04T17:44:14;0.60;99.90
6429;DHT22;3247;48.946;10.220;2023-03-04T17:46:39;0.70;99.90
6429;DHT22;3247;48.946;10.220;2023-03-04T17:49:05;0.60;99.90
6429;DHT22;3247;48.946;10.220;2023-03-04T17:51:32;0.60;99.90
6429;DHT22;3247;48.946;10.220;2023-03-04T17:53:57;0.60;99.90
6429;DHT22;3247;48.946;10.220;2023-03-04T17:56:26;0.70;99.90
6429;DHT22;3247;48.946;10.220;2023-03-04T17:58:54;0.70;99.90
6429;DHT22;3247;48.946;10.220;2023-03-04T18:01:20;0.70;99.90
6429;DHT22;3247;48.946;10.220;2023-03-04T18:03:45;0.70;99.90
6429;DHT22;3247;48.946;10.220;2023-03-04T18:06:11;0.70;99.90
6429;DHT22;3247;48.946;10.220;2023-03-04T18:08:37;0.70;99.90
6429;DHT22;3247;48.946;10.220;2023-03-04T18:11:02;0.70;99.90
6429;DHT22;3247;48.946;10.220;2023-03-04T18:13:28;0.70;99.90
6429;DHT22;3247;48.946;10.220;2023-03-04T18:15:53;0.60;99.90
6429;DHT22;3247;48.946;10.220;2023-03-04T18:18:19;0.60;99.90
6429;DHT22;3247;48.946;10.220;2023-03-04T18:21:01;0.60;99.90
6429;DHT22;3247;48.946;10.220;2023-03-04T18:23:27;0.60;99.90
6429;DHT22;3247;48.946;10.220;2023-03-04T18:25:52;0.60;99.90
6429;DHT22;3247;48.946;10.220;2023-03-04T18:28:18;0.60;99.90
6429;DHT22;3247;48.946;10.220;2023-03-04T18:30:43;0.60;99.90
6429;DHT22;3247;48.946;10.220;2023-03-04T18:33:08;0.60;99.90
6429;DHT22;3247;48.946;10.220;2023-03-04T18:35:34;0.60;99.90
6429;DHT22;3247;48.946;10.220;2023-03-04T18:37:59;0.60;99.90
6429;DHT22;3247;48.946;10.220;2023-03-04T18:40:25;0.60;99.90
6429;DHT22;3247;48.946;10.220;2023-03-04T18:42:51;0.60;99.90
6429;DHT22;3247;48.946;10.220;2023-03-04T18:45:16;0.60;99.90
6429;DHT22;3247;48.946;10.220;2023-03-04T18:47:49;0.60;99.90
6429;DHT22;3247;48.946;10.220;2023-03-04T18:50:15;0.60;99.90
6429;DHT22;3247;48.946;10.220;2023-03-04T18:52:41;0.60;99.90
6429;DHT22;3247;48.946;10.220;2023-03-04T18:55:07;0.60;99.90
6429;DHT22;3247;48.946;10.220;2023-03-04T18:57:33;0.60;99.90
6429;DHT22;3247;48.946;10.220;2023-03-04T19:00:00;0.60;99.90
6429;DHT22;3247;48.946;10.220;2023-03-04T19:02:34;0.60;99.90
6429;DHT22;3247;48.946;10.220;2023-03-04T19:05:02;0.60;99.90
6429;DHT22;3247;48.946;10.220;2023-03-04T19:07:29;0.60;99.90
6429;DHT22;3247;48.946;10.220;2023-03-04T19:09:54;0.60;99.90
6429;DHT22;3247;48.946;10.220;2023-03-04T19:12:19;0.60;99.90
6429;DHT22;3247;48.946;10.220;2023-03-04T19:14:45;0.60;99.90
6429;DHT22;3247;48.946;10.220;2023-03-04T19:17:10;0.60;99.90
6429;DHT22;3247;48.946;10.220;2023-03-04T19:19:36;0.60;99.90
6429;DHT22;3247;48.946;10.220;2023-03-04T19:22:02;1.30;99.90
6429;DHT22;3247;48.946;10.220;2023-03-04T19:24:28;0.50;99.90
6429;DHT22;3247;48.946;10.220;2023-03-04T19:26:53;0.50;99.90
6429;DHT22;3247;48.946;10.220;2023-03-04T19:29:18;0.60;99.90
6429;DHT22;3247;48.946;10.220;2023-03-04T19:31:44;0.60;99.90
6429;DHT22;3247;48.946;10.220;2023-03-04T19:34:09;0.50;99.90
6429;DHT22;3247;48.946;10.220;2023-03-04T19:36:35;0.50;99.90
6429;DHT22;3247;48.946;10.220;2023-03-04T19:39:01;0.50;99.90
6429;DHT22;3247;48.946;10.220;2023-03-04T19:41:26;0.50;99.90
6429;DHT22;3247;48.946;10.220;2023-03-04T19:43:52;0.50;99.90
6429;DHT22;3247;48.946;10.220;2023-03-04T19:46:18;0.50;99.90
6429;DHT22;3247;48.946;10.220;2023-03-04T19:48:44;0.50;99.90
6429;DHT22;3247;48.946;10.220;2023-03-04T19:54:10;0.50;99.90
6429;DHT22;3247;48.946;10.220;2023-03-04T19:56:35;0.50;99.90
6429;DHT22;3247;48.946;10.220;2023-03-04T19:59:01;0.50;99.90
6429;DHT22;3247;48.946;10.220;2023-03-04T20:01:30;0.50;99.90
6429;DHT22;3247;48.946;10.220;2023-03-04T20:04:00;0.50;99.90
6429;DHT22;3247;48.946;10.220;2023-03-04T20:06:26;0.50;99.90
6429;DHT22;3247;48.946;10.220;2023-03-04T20:08:59;0.50;99.90
6429;DHT22;3247;48.946;10.220;2023-03-04T20:11:25;0.50;99.90
6429;DHT22;3247;48.946;10.220;2023-03-04T20:13:56;0.50;99.90
6429;DHT22;3247;48.946;10.220;2023-03-04T20:16:48;0.50;99.90
6429;DHT22;3247;48.946;10.220;2023-03-04T20:19:13;0.50;99.90
6429;DHT22;3247;48.946;10.220;2023-03-04T20:21:39;0.50;99.90
6429;DHT22;3247;48.946;10.220;2023-03-04T20:24:04;0.50;99.90
6429;DHT22;3247;48.946;10.220;2023-03-04T20:26:30;0.50;99.90
6429;DHT22;3247;48.946;10.220;2023-03-04T20:28:56;0.60;99.90
6429;DHT22;3247;48.946;10.220;2023-03-04T20:31:23;0.50;99.90
6429;DHT22;3247;48.946;10.220;2023-03-04T20:33:49;0.60;99.90
6429;DHT22;3247;48.946;10.220;2023-03-04T20:36:18;0.60;99.90
6429;DHT22;3247;48.946;10.220;2023-03-04T20:38:44;0.60;99.90
6429;DHT22;3247;48.946;10.220;2023-03-04T20:41:09;0.50;99.90
6429;DHT22;3247;48.946;10.220;2023-03-04T20:43:35;0.50;99.90
6429;DHT22;3247;48.946;10.220;2023-03-04T20:48:44;0.50;99.90
6429;DHT22;3247;48.946;10.220;2023-03-04T20:51:10;0.50;99.90
6429;DHT22;3247;48.946;10.220;2023-03-04T20:53:35;0.50;99.90
6429;DHT22;3247;48.946;10.220;2023-03-04T20:56:01;0.50;99.90
6429;DHT22;3247;48.946;10.220;2023-03-04T20:58:27;0.40;99.90
6429;DHT22;3247;48.946;10.220;2023-03-04T21:00:53;0.50;99.90
6429;DHT22;3247;48.946;10.220;2023-03-04T21:03:18;0.40;99.90